KOLS/OLS METAR and TAF weather

Enter ICAO airport designator
Station Type Date Time Source
KOLS METAR 2021/07/29 17:54 UTC NOAA

KOLS 291754Z AUTO 00000KT 10SM CLR 29/16 A3011 RMK AO2 SLP125 T02890161 10294 20200 55002


Station Type Date Time Source
KOLS Decoded METAR 2021/07/29 17:54 UTC NOAA

NOGALES INTERNATIONAL AIRPORT , AZ, United States (KOLS) 31-25N 110-51W 1184M
Jul 29, 2021 - 01:54 PM EDT / 2021.07.29 1754 UTC
Wind: Calm:0
Visibility: 10 mile(s):0
Sky conditions: clear
Temperature: 84.0 F (28.9 C)
Dew Point: 61.0 F (16.1 C)
Relative Humidity: 45%
Pressure (altimeter): 30.11 in. Hg (1019 hPa)
Pressure tendency: 0.01 inches (0.2 hPa) lower than three hours ago
ob: KOLS 291754Z AUTO 00000KT 10SM CLR 29/16 A3011 RMK AO2 SLP125 T02890161 10294 20200 55002
cycle: 18

Station Type Date Time Source
KOLS TAF 2021/07/29 18:34 UTC NOAA

TAF KOLS 291732Z 2918/3018 11005KT P6SM SCT100
FM292100 09008KT P6SM VCTS SCT070 BKN120CB
FM300100 10005KT P6SM VCSH BKN080
FM300600 08005KT P6SM SCT100

Example: see airport list